createdAt,value
2018-08-31T00:00:49.167Z,15.60
2018-08-31T00:02:55.826Z,15.70
2018-08-31T00:06:10.692Z,15.30
2018-08-31T00:10:34.406Z,15.20
2018-08-31T00:12:39.321Z,15.10
2018-08-31T00:14:43.969Z,15.00
2018-08-31T00:16:49.293Z,15.20
2018-08-31T00:18:54.362Z,15.30
2018-08-31T00:20:59.230Z,15.20
2018-08-31T00:23:04.176Z,15.00
2018-08-31T00:26:19.270Z,15.10
2018-08-31T00:29:35.350Z,15.20
2018-08-31T00:31:56.151Z,15.30
2018-08-31T00:34:11.254Z,15.40
2018-08-31T00:37:26.504Z,15.10
2018-08-31T00:40:19.962Z,14.90
2018-08-31T00:42:37.618Z,14.90
2018-08-31T00:44:53.179Z,14.60
2018-08-31T00:46:58.745Z,14.50
2018-08-31T00:49:03.366Z,14.40
2018-08-31T00:51:07.597Z,14.20
2018-08-31T00:53:11.785Z,14.40
2018-08-31T00:55:15.966Z,14.30
2018-08-31T00:57:20.170Z,14.50
2018-08-31T00:59:24.404Z,14.30
2018-08-31T01:01:28.562Z,13.60
2018-08-31T01:03:32.761Z,13.90
2018-08-31T01:05:37.007Z,14.40
2018-08-31T01:07:41.263Z,14.50
2018-08-31T01:09:45.547Z,14.80
2018-08-31T01:11:49.737Z,14.80
2018-08-31T01:13:53.965Z,14.80
2018-08-31T01:15:58.277Z,14.90
2018-08-31T01:18:02.526Z,14.90
2018-08-31T01:20:07.676Z,14.70
2018-08-31T01:22:11.882Z,14.80
2018-08-31T01:24:16.146Z,14.30
2018-08-31T01:26:20.387Z,14.30
2018-08-31T01:28:24.599Z,14.30
2018-08-31T01:30:29.059Z,14.30
2018-08-31T01:32:33.325Z,13.90
2018-08-31T01:34:37.586Z,14.30
2018-08-31T01:36:41.754Z,14.60
2018-08-31T01:38:46.081Z,14.80
2018-08-31T01:40:50.319Z,14.80
2018-08-31T01:42:54.593Z,14.50
2018-08-31T01:44:58.777Z,14.30
2018-08-31T01:47:02.883Z,14.60
2018-08-31T01:49:07.440Z,14.70
2018-08-31T01:51:16.743Z,14.80
2018-08-31T01:53:20.934Z,14.70
2018-08-31T01:55:31.191Z,14.40
2018-08-31T01:57:35.385Z,13.90
2018-08-31T01:59:39.579Z,13.90
2018-08-31T02:01:43.829Z,13.50
2018-08-31T02:03:48.004Z,13.90
2018-08-31T02:05:52.158Z,14.00
2018-08-31T02:07:56.402Z,13.80
2018-08-31T02:10:00.646Z,14.00
2018-08-31T02:12:04.842Z,14.20
2018-08-31T02:14:09.124Z,13.70
2018-08-31T02:16:13.470Z,13.70
2018-08-31T02:18:17.729Z,14.00
2018-08-31T02:20:21.875Z,14.20
2018-08-31T02:22:26.052Z,14.20
2018-08-31T02:24:30.246Z,14.00
2018-08-31T02:26:34.407Z,13.90
2018-08-31T02:28:38.577Z,13.90
2018-08-31T02:30:42.824Z,14.10
2018-08-31T02:32:46.999Z,14.20
2018-08-31T02:34:51.227Z,14.40
2018-08-31T02:36:55.465Z,14.50
2018-08-31T02:38:59.723Z,14.40
2018-08-31T02:41:03.913Z,14.20
2018-08-31T02:43:08.177Z,14.10
2018-08-31T02:45:12.432Z,14.20
2018-08-31T02:47:16.610Z,13.70
2018-08-31T02:49:20.837Z,13.40
2018-08-31T02:51:25.010Z,13.40
2018-08-31T02:53:29.246Z,13.10
2018-08-31T02:55:33.478Z,13.40
2018-08-31T02:57:37.756Z,13.10
2018-08-31T02:59:42.027Z,13.40
2018-08-31T03:01:46.200Z,13.50
2018-08-31T03:03:50.406Z,13.40
2018-08-31T03:05:54.557Z,13.50
2018-08-31T03:07:58.791Z,13.40
2018-08-31T03:10:03.046Z,13.60
2018-08-31T03:12:07.228Z,13.80
2018-08-31T03:14:11.504Z,13.90
2018-08-31T03:16:15.693Z,14.10
2018-08-31T03:18:20.394Z,13.80
2018-08-31T03:20:24.675Z,13.90
2018-08-31T03:22:28.874Z,13.90
2018-08-31T03:24:33.094Z,14.00
2018-08-31T03:26:37.272Z,13.80
2018-08-31T03:28:41.438Z,13.30
2018-08-31T03:30:45.677Z,13.70
2018-08-31T03:32:49.855Z,13.90
2018-08-31T03:34:54.114Z,14.00
2018-08-31T03:36:58.398Z,14.10
2018-08-31T03:39:02.482Z,14.10
2018-08-31T03:41:06.889Z,14.20
2018-08-31T03:43:11.131Z,13.70
2018-08-31T03:45:15.322Z,13.60
2018-08-31T03:47:19.641Z,13.40
2018-08-31T03:49:23.956Z,13.80
2018-08-31T03:51:28.491Z,13.90
2018-08-31T03:53:32.796Z,14.10
2018-08-31T03:55:37.062Z,14.30
2018-08-31T03:57:41.331Z,14.40
2018-08-31T03:59:45.681Z,14.40
2018-08-31T04:01:50.016Z,14.30
2018-08-31T04:03:54.226Z,13.50
2018-08-31T04:05:58.466Z,13.50
2018-08-31T04:08:02.640Z,13.40
2018-08-31T04:10:07.512Z,13.30
2018-08-31T04:12:12.000Z,12.80
2018-08-31T04:14:16.334Z,12.70
2018-08-31T04:16:20.570Z,12.70
2018-08-31T04:18:24.743Z,13.20
2018-08-31T04:20:28.916Z,13.50
2018-08-31T04:22:33.043Z,13.50
2018-08-31T04:24:37.266Z,13.70
2018-08-31T04:26:41.406Z,13.80
2018-08-31T04:28:45.527Z,14.00
2018-08-31T04:30:49.750Z,14.00
2018-08-31T04:32:54.006Z,13.90
2018-08-31T04:34:58.186Z,14.00
2018-08-31T04:37:02.844Z,14.00
2018-08-31T04:39:09.550Z,14.10
2018-08-31T04:41:13.807Z,14.00
2018-08-31T04:43:18.000Z,13.90
2018-08-31T04:45:22.304Z,14.10
2018-08-31T04:47:27.123Z,13.70
2018-08-31T04:49:31.325Z,14.00
2018-08-31T04:51:35.581Z,14.00
2018-08-31T04:53:39.740Z,13.90
2018-08-31T04:55:43.968Z,13.90
2018-08-31T04:57:48.744Z,13.90
2018-08-31T04:59:53.338Z,14.00
2018-08-31T05:01:58.473Z,13.90
2018-08-31T05:04:03.953Z,13.70
2018-08-31T05:06:08.745Z,13.60
2018-08-31T05:08:13.816Z,13.90
2018-08-31T05:10:18.434Z,14.00
2018-08-31T05:12:22.644Z,13.90
2018-08-31T05:14:32.030Z,13.90
2018-08-31T05:16:36.409Z,13.90
2018-08-31T05:18:40.590Z,13.80
2018-08-31T05:20:44.854Z,13.80
2018-08-31T05:22:49.021Z,13.60
2018-08-31T05:24:53.610Z,13.50
2018-08-31T05:26:57.766Z,13.50
2018-08-31T05:29:02.082Z,13.70
2018-08-31T05:31:06.374Z,13.80
2018-08-31T05:33:10.619Z,13.90
2018-08-31T05:35:14.850Z,13.90
2018-08-31T05:37:19.125Z,13.90
2018-08-31T05:39:23.331Z,13.90
2018-08-31T05:41:27.615Z,14.00
2018-08-31T05:43:31.816Z,14.10
2018-08-31T05:45:36.002Z,14.10
2018-08-31T05:47:40.195Z,14.10
2018-08-31T05:49:44.837Z,14.00
2018-08-31T05:51:49.072Z,13.60
2018-08-31T05:53:53.242Z,13.50
2018-08-31T05:55:57.438Z,13.70
2018-08-31T05:58:01.683Z,13.60
2018-08-31T06:00:06.241Z,13.60
2018-08-31T06:02:10.579Z,13.80
2018-08-31T06:04:14.835Z,13.80
2018-08-31T06:06:19.094Z,13.80
2018-08-31T06:08:23.235Z,13.80
2018-08-31T06:10:27.410Z,14.00
2018-08-31T06:12:31.576Z,14.00
2018-08-31T06:14:35.819Z,14.10
2018-08-31T06:16:40.009Z,13.90
2018-08-31T06:18:44.201Z,13.80
2018-08-31T06:20:49.439Z,13.80
2018-08-31T06:22:53.614Z,13.80
2018-08-31T06:24:57.824Z,13.80
2018-08-31T06:27:02.121Z,13.70
2018-08-31T06:29:06.271Z,13.70
2018-08-31T06:31:15.534Z,13.50
2018-08-31T06:33:19.806Z,13.60
2018-08-31T06:35:24.037Z,13.80
2018-08-31T06:37:28.694Z,13.90
2018-08-31T06:39:32.843Z,13.90
2018-08-31T06:41:37.061Z,13.80
2018-08-31T06:43:41.286Z,13.90
2018-08-31T06:45:45.567Z,14.10
2018-08-31T06:47:49.767Z,14.10
2018-08-31T06:49:53.941Z,14.20
2018-08-31T06:51:58.119Z,14.30
2018-08-31T06:54:02.334Z,14.40
2018-08-31T06:56:06.548Z,14.50
2018-08-31T06:58:10.874Z,14.40
2018-08-31T07:00:15.038Z,14.40
2018-08-31T07:02:19.494Z,14.40
2018-08-31T07:04:24.220Z,14.40
2018-08-31T07:06:28.461Z,14.40
2018-08-31T07:08:32.657Z,14.40
2018-08-31T07:10:36.851Z,14.40
2018-08-31T07:12:41.042Z,14.40
2018-08-31T07:14:45.280Z,14.50
2018-08-31T07:16:49.477Z,14.50
2018-08-31T07:18:53.627Z,14.60
2018-08-31T07:20:57.940Z,14.70
2018-08-31T07:23:03.078Z,14.70
2018-08-31T07:25:07.343Z,14.80
2018-08-31T07:27:11.519Z,14.80
2018-08-31T07:29:15.688Z,14.80
2018-08-31T07:31:19.837Z,14.90
2018-08-31T07:33:24.031Z,14.90
2018-08-31T07:35:28.293Z,15.00
2018-08-31T07:37:32.451Z,15.00
2018-08-31T07:39:36.689Z,15.10
2018-08-31T07:41:40.891Z,15.20
2018-08-31T07:43:45.084Z,15.30
2018-08-31T07:45:49.444Z,15.30
2018-08-31T07:47:53.688Z,15.40
2018-08-31T07:49:57.888Z,15.40
2018-08-31T07:52:02.077Z,15.40
2018-08-31T07:54:06.410Z,15.40
2018-08-31T07:56:10.627Z,15.50
2018-08-31T07:58:14.953Z,15.50
2018-08-31T08:00:19.170Z,15.50
2018-08-31T08:02:23.375Z,15.50
2018-08-31T08:04:27.511Z,15.70
2018-08-31T08:06:31.686Z,15.60
2018-08-31T08:08:35.872Z,15.60
2018-08-31T08:10:40.026Z,15.60
2018-08-31T08:12:44.258Z,15.50
2018-08-31T08:14:48.519Z,15.60
2018-08-31T08:16:52.692Z,15.60
2018-08-31T08:18:56.846Z,15.60
2018-08-31T08:21:01.134Z,15.60
2018-08-31T08:23:05.666Z,15.60
2018-08-31T08:25:09.819Z,15.70
2018-08-31T08:27:14.004Z,15.70
2018-08-31T08:29:18.219Z,15.80
2018-08-31T08:31:22.331Z,15.90
2018-08-31T08:33:26.583Z,15.90
2018-08-31T08:35:30.803Z,15.80
2018-08-31T08:37:35.038Z,15.80
2018-08-31T08:39:39.328Z,15.90
2018-08-31T08:41:43.514Z,16.00
2018-08-31T08:43:54.667Z,16.00
2018-08-31T08:45:59.380Z,16.00
2018-08-31T08:48:03.693Z,16.00
2018-08-31T08:50:08.076Z,16.00
2018-08-31T08:52:12.293Z,16.00
2018-08-31T08:54:16.547Z,16.00
2018-08-31T08:56:20.723Z,16.00
2018-08-31T08:58:24.971Z,16.00
2018-08-31T09:00:29.142Z,16.00
2018-08-31T09:02:33.377Z,16.10
2018-08-31T09:04:37.659Z,16.20
2018-08-31T09:06:41.821Z,16.10
2018-08-31T09:08:46.103Z,16.10
2018-08-31T09:10:50.355Z,16.10
2018-08-31T09:12:54.539Z,16.10
2018-08-31T09:14:58.737Z,16.20
2018-08-31T09:17:02.908Z,16.20
2018-08-31T09:19:07.110Z,16.30
2018-08-31T09:21:11.342Z,16.40
2018-08-31T09:23:15.612Z,16.40
2018-08-31T09:25:19.807Z,16.60
2018-08-31T09:27:28.074Z,16.60
2018-08-31T09:29:32.316Z,16.60
2018-08-31T09:31:36.522Z,16.60
2018-08-31T09:33:40.831Z,16.60
2018-08-31T09:35:45.023Z,16.60
2018-08-31T09:37:49.242Z,16.70
2018-08-31T09:39:53.472Z,16.80
2018-08-31T09:41:57.776Z,16.70
2018-08-31T09:44:02.088Z,16.70
2018-08-31T09:46:06.473Z,16.70
2018-08-31T09:48:10.697Z,16.80
2018-08-31T09:50:14.849Z,16.80
2018-08-31T09:52:19.073Z,16.80
2018-08-31T09:54:23.315Z,16.80
2018-08-31T09:56:27.789Z,16.90
2018-08-31T09:58:32.080Z,16.90
2018-08-31T10:00:41.446Z,16.80
2018-08-31T10:02:50.768Z,16.80
2018-08-31T10:04:54.971Z,16.80
2018-08-31T10:06:59.263Z,16.70
2018-08-31T10:09:03.789Z,16.70
2018-08-31T10:11:08.263Z,16.70
2018-08-31T10:13:12.508Z,16.70
2018-08-31T10:15:16.689Z,17.00
2018-08-31T10:17:20.911Z,17.00
2018-08-31T10:19:25.241Z,17.00
2018-08-31T10:21:29.390Z,17.00
2018-08-31T10:23:33.577Z,17.10
2018-08-31T10:25:37.765Z,17.20
2018-08-31T10:27:41.927Z,17.20
2018-08-31T10:29:46.107Z,17.20
2018-08-31T10:31:50.346Z,17.20
2018-08-31T10:33:54.575Z,17.20
2018-08-31T10:35:58.766Z,17.30
2018-08-31T10:38:03.031Z,17.40
2018-08-31T10:40:07.361Z,17.30
2018-08-31T10:42:11.564Z,17.40
2018-08-31T10:44:15.682Z,17.30
2018-08-31T10:46:20.001Z,17.30
2018-08-31T10:48:24.322Z,17.30
2018-08-31T10:50:28.520Z,17.40
2018-08-31T10:52:32.663Z,17.50
2018-08-31T10:54:36.958Z,17.60
2018-08-31T10:56:41.158Z,17.60
2018-08-31T10:58:45.366Z,17.60
2018-08-31T11:00:49.538Z,17.80
2018-08-31T11:02:53.921Z,17.70
2018-08-31T11:04:58.202Z,17.80
2018-08-31T11:07:02.418Z,17.70
2018-08-31T11:09:07.387Z,17.80
2018-08-31T11:11:11.621Z,17.70
2018-08-31T11:13:15.950Z,17.70
2018-08-31T11:15:20.234Z,17.70
2018-08-31T11:17:24.475Z,17.60
2018-08-31T11:19:28.763Z,17.80
2018-08-31T11:21:33.730Z,17.70
2018-08-31T11:23:37.850Z,17.70
2018-08-31T11:25:42.075Z,17.50
2018-08-31T11:27:46.328Z,17.50
2018-08-31T11:29:50.473Z,17.40
2018-08-31T11:31:54.747Z,17.40
2018-08-31T11:33:58.971Z,17.30
2018-08-31T11:36:03.219Z,17.10
2018-08-31T11:38:07.822Z,17.00
2018-08-31T11:40:12.067Z,17.20
2018-08-31T11:42:16.263Z,17.10
2018-08-31T11:44:20.557Z,17.30
2018-08-31T11:46:24.739Z,17.30
2018-08-31T11:48:28.942Z,17.20
2018-08-31T11:50:33.111Z,17.20
2018-08-31T11:52:37.314Z,17.20
2018-08-31T11:54:41.487Z,17.20
2018-08-31T11:56:45.703Z,17.10
2018-08-31T11:58:49.930Z,17.20
2018-08-31T12:00:54.116Z,17.10
2018-08-31T12:02:58.455Z,17.10
2018-08-31T12:05:02.737Z,17.10
2018-08-31T12:07:06.961Z,17.20
2018-08-31T12:09:11.422Z,17.20
2018-08-31T12:11:15.662Z,17.30
2018-08-31T12:13:19.852Z,17.40
2018-08-31T12:15:24.172Z,17.50
2018-08-31T12:17:28.398Z,17.60
2018-08-31T12:19:32.654Z,17.60
2018-08-31T12:21:36.902Z,17.50
2018-08-31T12:23:41.096Z,17.50
2018-08-31T12:25:45.249Z,17.50
2018-08-31T12:27:49.453Z,17.60
2018-08-31T12:29:53.695Z,17.60
2018-08-31T12:31:57.901Z,17.70
2018-08-31T12:34:02.107Z,17.80
2018-08-31T12:36:06.363Z,18.50
2018-08-31T12:38:10.588Z,18.50
2018-08-31T12:40:14.894Z,18.50
2018-08-31T12:42:19.079Z,18.50
2018-08-31T12:44:23.386Z,18.70
2018-08-31T12:46:27.487Z,18.90
2018-08-31T12:48:31.675Z,19.10
2018-08-31T12:50:35.868Z,18.90
2018-08-31T12:52:40.130Z,18.60
2018-08-31T12:54:44.330Z,18.60
2018-08-31T12:56:48.551Z,18.40
2018-08-31T12:58:52.855Z,18.40
2018-08-31T13:00:57.146Z,18.30
2018-08-31T13:03:01.390Z,18.30
2018-08-31T13:05:06.293Z,18.30
2018-08-31T13:07:10.559Z,18.30
2018-08-31T13:09:14.773Z,18.30
2018-08-31T13:11:27.894Z,18.30
2018-08-31T13:13:45.906Z,18.30
2018-08-31T13:15:51.753Z,18.20
2018-08-31T13:17:56.643Z,18.20
2018-08-31T13:20:04.470Z,18.20
2018-08-31T13:22:08.814Z,18.20
2018-08-31T13:24:13.106Z,18.10
2018-08-31T13:26:17.330Z,18.10
2018-08-31T13:28:21.752Z,18.10
2018-08-31T13:30:25.964Z,18.20
2018-08-31T13:32:30.202Z,18.20
2018-08-31T13:34:34.378Z,18.20
2018-08-31T13:36:38.536Z,18.30
2018-08-31T13:38:42.751Z,18.20
2018-08-31T13:40:46.984Z,18.20
2018-08-31T13:42:51.284Z,18.20
2018-08-31T13:44:55.466Z,18.20
2018-08-31T13:46:59.698Z,18.10
2018-08-31T13:49:04.170Z,18.10
2018-08-31T13:51:08.449Z,18.00
2018-08-31T13:53:12.598Z,18.00
2018-08-31T13:55:16.833Z,18.10
2018-08-31T13:57:21.021Z,18.10
2018-08-31T13:59:25.255Z,18.10
2018-08-31T14:01:29.432Z,18.20
2018-08-31T14:03:33.699Z,18.30
2018-08-31T14:05:37.931Z,18.50
2018-08-31T14:07:42.146Z,18.50
2018-08-31T14:09:46.390Z,18.40
2018-08-31T14:11:50.591Z,18.30
2018-08-31T14:13:54.787Z,18.30
2018-08-31T14:15:59.026Z,18.30
2018-08-31T14:18:03.225Z,18.20
2018-08-31T14:20:07.495Z,18.20
2018-08-31T14:22:11.637Z,18.20
2018-08-31T14:24:15.815Z,18.10
2018-08-31T14:26:20.013Z,18.10
2018-08-31T14:28:24.233Z,18.10
2018-08-31T14:30:28.483Z,18.00
2018-08-31T14:32:32.707Z,18.10
2018-08-31T14:34:37.074Z,18.00
2018-08-31T14:36:41.361Z,18.10
2018-08-31T14:38:45.444Z,18.10
2018-08-31T14:40:49.605Z,18.00
2018-08-31T14:42:53.819Z,18.00
2018-08-31T14:44:57.932Z,18.00
2018-08-31T14:47:02.150Z,17.90
2018-08-31T14:49:07.011Z,18.00
2018-08-31T14:51:11.184Z,18.00
2018-08-31T14:53:15.738Z,17.90
2018-08-31T14:55:20.088Z,17.90
2018-08-31T14:57:24.375Z,17.90
2018-08-31T14:59:28.519Z,17.90
2018-08-31T15:01:32.691Z,18.00
2018-08-31T15:03:36.924Z,17.90
2018-08-31T15:05:41.503Z,17.80
2018-08-31T15:07:45.935Z,17.80
2018-08-31T15:09:50.110Z,17.90
2018-08-31T15:11:54.274Z,17.90
2018-08-31T15:13:58.463Z,17.90
2018-08-31T15:16:02.695Z,18.00
2018-08-31T15:18:07.314Z,18.00
2018-08-31T15:20:11.506Z,18.00
2018-08-31T15:22:15.726Z,18.00
2018-08-31T15:24:19.979Z,18.00
2018-08-31T15:26:24.217Z,17.90
2018-08-31T15:28:28.432Z,18.00
2018-08-31T15:30:32.650Z,18.10
2018-08-31T15:32:36.873Z,18.00
2018-08-31T15:34:41.049Z,18.00
2018-08-31T15:36:45.250Z,18.10
2018-08-31T15:38:49.421Z,18.20
2018-08-31T15:40:53.590Z,18.30
2018-08-31T15:42:57.917Z,18.30
2018-08-31T15:45:02.110Z,18.50
2018-08-31T15:47:06.577Z,18.40
2018-08-31T15:49:10.775Z,18.30
2018-08-31T15:51:15.078Z,18.30
2018-08-31T15:53:19.246Z,18.20
2018-08-31T15:55:23.401Z,18.20
2018-08-31T15:57:27.591Z,18.20
2018-08-31T15:59:31.823Z,18.20
2018-08-31T16:03:51.733Z,18.20
2018-08-31T16:05:55.779Z,18.20
2018-08-31T16:07:59.666Z,18.10
2018-08-31T16:10:03.565Z,18.10
2018-08-31T16:12:07.776Z,18.10
2018-08-31T16:14:11.722Z,18.00
2018-08-31T16:16:15.603Z,18.00
2018-08-31T16:18:19.822Z,18.00
2018-08-31T16:20:23.768Z,18.00
2018-08-31T16:22:27.713Z,17.90
2018-08-31T16:24:31.638Z,17.90
2018-08-31T16:26:35.546Z,17.90
2018-08-31T16:28:39.501Z,17.90
2018-08-31T16:30:43.548Z,17.90
2018-08-31T16:32:47.529Z,17.90
2018-08-31T16:34:51.742Z,17.90
2018-08-31T16:36:55.997Z,17.90
2018-08-31T16:39:00.259Z,18.00
2018-08-31T16:41:04.440Z,18.10
2018-08-31T16:43:08.650Z,18.30
2018-08-31T16:45:13.141Z,18.50
2018-08-31T16:47:17.416Z,18.50
2018-08-31T16:49:21.523Z,18.30
2018-08-31T16:51:25.698Z,18.30
2018-08-31T16:53:29.935Z,18.20
2018-08-31T16:55:34.118Z,18.30
2018-08-31T16:57:38.356Z,18.20
2018-08-31T16:59:42.542Z,18.20
2018-08-31T17:01:46.782Z,18.20
2018-08-31T17:03:51.171Z,18.20
2018-08-31T17:05:55.402Z,18.20
2018-08-31T17:07:59.592Z,18.20
2018-08-31T17:10:03.826Z,18.10
2018-08-31T17:12:08.028Z,18.10
2018-08-31T17:14:12.202Z,18.10
2018-08-31T17:16:16.392Z,18.10
2018-08-31T17:18:20.902Z,18.10
2018-08-31T17:20:25.065Z,18.00
2018-08-31T17:22:29.248Z,18.00
2018-08-31T17:24:33.576Z,17.80
2018-08-31T17:26:43.031Z,17.80
2018-08-31T17:28:52.286Z,17.80
2018-08-31T17:31:01.622Z,17.80
2018-08-31T17:33:11.023Z,17.80
2018-08-31T17:35:20.487Z,17.70
2018-08-31T17:37:29.879Z,17.60
2018-08-31T17:39:34.069Z,17.70
2018-08-31T17:41:38.313Z,17.80
2018-08-31T17:43:42.615Z,17.70
2018-08-31T17:45:46.785Z,17.50
2018-08-31T17:47:51.520Z,17.40
2018-08-31T17:49:55.806Z,17.40
2018-08-31T17:52:00.001Z,17.40
2018-08-31T17:54:04.199Z,17.30
2018-08-31T17:56:08.476Z,17.30
2018-08-31T17:58:12.814Z,17.40
2018-08-31T18:00:17.023Z,17.30
2018-08-31T18:02:21.191Z,17.30
2018-08-31T18:04:25.425Z,17.30
2018-08-31T18:06:29.774Z,17.30
2018-08-31T18:08:33.993Z,17.30
2018-08-31T18:10:38.178Z,17.30
2018-08-31T18:12:42.381Z,17.20
2018-08-31T18:14:46.585Z,17.20
2018-08-31T18:16:50.802Z,17.20
2018-08-31T18:18:55.019Z,17.10
2018-08-31T18:20:59.222Z,17.10
2018-08-31T18:23:03.578Z,16.90
2018-08-31T18:25:07.831Z,16.80
2018-08-31T18:27:12.008Z,16.80
2018-08-31T18:29:16.246Z,16.60
2018-08-31T18:31:20.497Z,16.60
2018-08-31T18:33:24.818Z,16.70
2018-08-31T18:35:29.018Z,16.50
2018-08-31T18:37:33.306Z,16.50
2018-08-31T18:39:37.526Z,16.60
2018-08-31T18:41:41.748Z,16.50
2018-08-31T18:43:46.067Z,16.40
2018-08-31T18:45:50.690Z,16.50
2018-08-31T18:47:55.120Z,16.40
2018-08-31T18:50:00.054Z,16.30
2018-08-31T18:52:04.412Z,16.30
2018-08-31T18:54:08.696Z,16.40
2018-08-31T18:56:12.862Z,16.20
2018-08-31T18:58:17.220Z,16.20
2018-08-31T19:00:21.500Z,16.30
2018-08-31T19:02:25.945Z,16.20
2018-08-31T19:04:30.458Z,16.20
2018-08-31T19:06:35.706Z,16.30
2018-08-31T19:08:41.139Z,16.30
2018-08-31T19:10:45.805Z,16.10
2018-08-31T19:12:50.508Z,16.20
2018-08-31T19:14:55.406Z,16.20
2018-08-31T19:17:00.440Z,16.20
2018-08-31T19:19:05.809Z,16.20
2018-08-31T19:21:10.692Z,16.20
2018-08-31T19:23:15.646Z,16.00
2018-08-31T19:25:20.685Z,15.90
2018-08-31T19:27:25.771Z,15.70
2018-08-31T19:29:31.539Z,15.80
2018-08-31T19:31:37.499Z,15.70
2018-08-31T19:33:43.037Z,15.90
2018-08-31T19:35:48.328Z,15.90
2018-08-31T19:37:53.439Z,15.90
2018-08-31T19:39:58.445Z,15.80
2018-08-31T19:42:03.210Z,15.80
2018-08-31T19:44:07.972Z,15.80
2018-08-31T19:46:12.535Z,15.90
2018-08-31T19:48:16.843Z,15.80
2018-08-31T19:50:21.475Z,15.90
2018-08-31T19:52:27.179Z,15.90
2018-08-31T19:54:31.650Z,15.80
2018-08-31T19:56:36.226Z,15.90
2018-08-31T19:58:40.589Z,15.80
2018-08-31T20:00:45.027Z,15.70
2018-08-31T20:02:49.265Z,15.70
2018-08-31T20:04:53.717Z,15.80
2018-08-31T20:06:57.951Z,15.70
2018-08-31T20:09:02.194Z,15.70
2018-08-31T20:11:06.350Z,15.80
2018-08-31T20:13:11.003Z,15.80
2018-08-31T20:15:15.218Z,15.70
2018-08-31T20:17:19.433Z,15.70
2018-08-31T20:19:23.729Z,15.50
2018-08-31T20:21:27.920Z,15.50
2018-08-31T20:23:32.154Z,15.40
2018-08-31T20:25:36.367Z,15.50
2018-08-31T20:27:40.543Z,15.40
2018-08-31T20:29:44.731Z,15.30
2018-08-31T20:31:48.997Z,15.40
2018-08-31T20:33:53.203Z,15.10
2018-08-31T20:35:57.359Z,15.20
2018-08-31T20:38:01.641Z,15.10
2018-08-31T20:40:07.381Z,15.20
2018-08-31T20:42:11.741Z,15.30
2018-08-31T20:44:15.918Z,15.30
2018-08-31T20:46:20.110Z,15.30
2018-08-31T20:48:24.386Z,15.20
2018-08-31T20:50:28.582Z,15.00
2018-08-31T20:52:32.763Z,15.10
2018-08-31T20:54:36.942Z,15.00
2018-08-31T20:56:41.109Z,15.00
2018-08-31T20:58:45.297Z,15.00
2018-08-31T21:00:49.537Z,15.10
2018-08-31T21:02:53.714Z,15.20
2018-08-31T21:04:57.927Z,15.20
2018-08-31T21:07:02.186Z,15.30
2018-08-31T21:09:08.895Z,14.90
2018-08-31T21:11:13.078Z,15.00
2018-08-31T21:13:17.346Z,14.90
2018-08-31T21:15:21.490Z,14.60
2018-08-31T21:17:25.677Z,14.80
2018-08-31T21:19:29.855Z,14.70
2018-08-31T21:21:34.085Z,14.70
2018-08-31T21:23:38.263Z,14.60
2018-08-31T21:25:43.018Z,14.60
2018-08-31T21:27:47.607Z,14.60
2018-08-31T21:29:51.771Z,14.50
2018-08-31T21:31:55.947Z,14.40
2018-08-31T21:34:00.159Z,14.50
2018-08-31T21:36:04.298Z,14.40
2018-08-31T21:38:08.583Z,14.30
2018-08-31T21:40:12.782Z,14.10
2018-08-31T21:42:17.003Z,14.10
2018-08-31T21:44:21.214Z,14.30
2018-08-31T21:46:25.582Z,13.90
2018-08-31T21:48:29.869Z,14.30
2018-08-31T21:50:35.746Z,14.30
2018-08-31T21:52:40.561Z,14.30
2018-08-31T21:54:45.286Z,14.40
2018-08-31T21:56:49.924Z,14.50
2018-08-31T21:58:54.322Z,14.20
2018-08-31T22:01:03.998Z,14.20
2018-08-31T22:03:08.513Z,14.20
2018-08-31T22:05:12.797Z,14.10
2018-08-31T22:07:17.351Z,14.30
2018-08-31T22:09:21.666Z,14.20
2018-08-31T22:11:25.867Z,14.40
2018-08-31T22:13:30.087Z,14.30
2018-08-31T22:15:34.243Z,14.30
2018-08-31T22:17:38.434Z,14.20
2018-08-31T22:19:42.669Z,14.10
2018-08-31T22:21:46.850Z,14.00
2018-08-31T22:23:51.034Z,14.00
2018-08-31T22:25:55.166Z,14.20
2018-08-31T22:27:59.337Z,14.20
2018-08-31T22:30:03.602Z,14.00
2018-08-31T22:32:07.767Z,14.10
2018-08-31T22:34:12.112Z,14.20
2018-08-31T22:36:16.255Z,14.10
2018-08-31T22:38:20.438Z,14.10
2018-08-31T22:40:24.704Z,14.10
2018-08-31T22:42:29.121Z,14.20
2018-08-31T22:44:35.904Z,14.10
2018-08-31T22:46:40.128Z,13.80
2018-08-31T22:48:44.322Z,13.70
2018-08-31T22:50:48.506Z,13.90
2018-08-31T22:52:52.734Z,14.00
2018-08-31T22:54:56.965Z,14.10
2018-08-31T22:57:01.182Z,13.90
2018-08-31T22:59:05.423Z,13.70
2018-08-31T23:01:09.665Z,13.80
2018-08-31T23:03:13.933Z,13.60
2018-08-31T23:05:18.094Z,13.80
2018-08-31T23:07:28.098Z,13.50
2018-08-31T23:09:32.713Z,13.60
2018-08-31T23:11:37.100Z,13.60
2018-08-31T23:13:44.127Z,13.40
2018-08-31T23:15:48.606Z,13.10
2018-08-31T23:17:53.390Z,13.40
2018-08-31T23:19:58.881Z,13.10
2018-08-31T23:22:03.411Z,13.10
2018-08-31T23:24:07.954Z,13.20
2018-08-31T23:26:12.897Z,13.40
2018-08-31T23:28:18.004Z,13.40
2018-08-31T23:30:22.589Z,13.30
2018-08-31T23:32:27.714Z,13.50
2018-08-31T23:34:32.147Z,13.30
2018-08-31T23:36:36.674Z,13.20
2018-08-31T23:38:41.629Z,13.40
2018-08-31T23:40:46.020Z,13.40
2018-08-31T23:42:50.448Z,13.40
2018-08-31T23:44:55.142Z,13.60
2018-08-31T23:46:59.613Z,13.60
2018-08-31T23:49:04.220Z,13.20
2018-08-31T23:51:08.910Z,12.90
2018-08-31T23:53:13.600Z,13.00
2018-08-31T23:55:18.750Z,13.10
2018-08-31T23:57:23.172Z,13.20
2018-08-31T23:59:27.868Z,13.40
